createdAt,value
2023-04-14T00:01:38.962Z,100467.06
2023-04-14T00:04:41.888Z,100462.75
2023-04-14T00:07:44.859Z,100465.75
2023-04-14T00:10:47.543Z,100472.16
2023-04-14T00:13:51.645Z,100478.28
2023-04-14T00:16:54.461Z,100483.13
2023-04-14T00:19:57.264Z,100486.44
2023-04-14T00:22:59.955Z,100485.38
2023-04-14T00:26:02.709Z,100488.84
2023-04-14T00:29:06.914Z,100489.91
2023-04-14T00:32:09.976Z,100498.09
2023-04-14T00:35:12.807Z,100493.22
2023-04-14T00:38:15.500Z,100499.59
2023-04-14T00:41:18.325Z,100499.13
2023-04-14T00:44:23.013Z,100502.78
2023-04-14T00:47:26.031Z,100503.41
2023-04-14T00:50:28.758Z,100501.41
2023-04-14T00:53:32.953Z,100502.56
2023-04-14T00:56:35.831Z,100499.00
2023-04-14T00:59:40.059Z,100503.88
2023-04-14T01:02:43.083Z,100510.75
2023-04-14T01:05:46.236Z,100515.75
2023-04-14T01:08:49.830Z,100513.47
2023-04-14T01:12:02.861Z,100510.75
2023-04-14T01:15:13.652Z,100504.59
2023-04-14T01:18:23.215Z,100501.28
2023-04-14T01:21:30.098Z,100506.50
2023-04-14T01:24:42.134Z,100510.31
2023-04-14T01:27:54.073Z,100508.66
2023-04-14T01:31:27.329Z,100506.00
2023-04-14T01:34:37.729Z,100506.47
2023-04-14T01:37:47.192Z,100504.41
2023-04-14T01:40:52.527Z,100505.00
2023-04-14T01:43:57.165Z,100507.97
2023-04-14T01:47:04.932Z,100514.38
2023-04-14T01:50:12.345Z,100507.47
2023-04-14T01:53:18.063Z,100517.69
2023-04-14T01:56:22.434Z,100515.78
2023-04-14T01:59:26.367Z,100507.69
2023-04-14T02:02:30.483Z,100515.16
2023-04-14T02:05:37.969Z,100509.53
2023-04-14T02:08:43.052Z,100504.81
2023-04-14T02:11:47.421Z,100510.03
2023-04-14T02:14:53.182Z,100508.38
2023-04-14T02:17:58.338Z,100512.84
2023-04-14T02:21:04.669Z,100515.50
2023-04-14T02:24:07.985Z,100505.53
2023-04-14T02:27:14.909Z,100511.97
2023-04-14T02:30:22.979Z,100509.13
2023-04-14T02:33:32.398Z,100509.50
2023-04-14T02:36:46.108Z,100505.78
2023-04-14T02:39:54.547Z,100521.34
2023-04-14T02:43:02.076Z,100517.69
2023-04-14T02:46:07.411Z,100518.88
2023-04-14T02:49:13.612Z,100528.59
2023-04-14T02:52:20.481Z,100526.13
2023-04-14T02:55:24.164Z,100523.19
2023-04-14T02:58:29.106Z,100527.31
2023-04-14T03:01:33.332Z,100532.75
2023-04-14T03:04:39.121Z,100526.31
2023-04-14T03:07:44.908Z,100527.34
2023-04-14T03:10:49.575Z,100520.47
2023-04-14T03:13:55.858Z,100524.84
2023-04-14T03:17:00.015Z,100521.22
2023-04-14T03:20:03.644Z,100520.97
2023-04-14T03:23:12.054Z,100529.72
2023-04-14T03:26:18.352Z,100517.16
2023-04-14T03:29:21.816Z,100517.72
2023-04-14T03:32:27.555Z,100507.06
2023-04-14T03:35:30.919Z,100511.81
2023-04-14T03:38:37.058Z,100516.00
2023-04-14T03:41:47.717Z,100514.75
2023-04-14T03:44:54.302Z,100510.13
2023-04-14T03:48:03.512Z,100505.38
2023-04-14T03:51:09.194Z,100498.91
2023-04-14T03:54:15.849Z,100501.16
2023-04-14T03:57:20.556Z,100504.50
2023-04-14T04:00:25.047Z,100493.56
2023-04-14T04:03:29.247Z,100494.88
2023-04-14T04:06:32.869Z,100500.69
2023-04-14T04:09:38.084Z,100496.78
2023-04-14T04:12:42.895Z,100525.28
2023-04-14T04:15:47.283Z,100513.06
2023-04-14T04:18:51.504Z,100524.50
2023-04-14T04:21:58.358Z,100522.59
2023-04-14T04:25:12.772Z,100523.84
2023-04-14T04:28:16.013Z,100528.34
2023-04-14T04:31:20.287Z,100529.84
2023-04-14T04:34:25.520Z,100518.44
2023-04-14T04:37:28.939Z,100519.84
2023-04-14T04:40:38.659Z,100517.69
2023-04-14T04:43:41.419Z,100520.41
2023-04-14T04:46:49.605Z,100523.16
2023-04-14T04:49:52.357Z,100525.88
2023-04-14T04:52:55.237Z,100520.50
2023-04-14T04:55:59.397Z,100527.84
2023-04-14T04:59:02.407Z,100523.22
2023-04-14T05:02:05.330Z,100524.28
2023-04-14T05:05:10.007Z,100526.19
2023-04-14T05:08:14.951Z,100522.63
2023-04-14T05:11:19.749Z,100528.69
2023-04-14T05:14:22.790Z,100527.13
2023-04-14T05:17:26.194Z,100525.81
2023-04-14T05:20:29.380Z,100517.03
2023-04-14T05:23:34.025Z,100521.75
2023-04-14T05:26:57.813Z,100528.03
2023-04-14T05:30:01.523Z,100531.47
2023-04-14T05:33:04.519Z,100530.13
2023-04-14T05:36:08.030Z,100528.47
2023-04-14T05:39:10.713Z,100531.19
2023-04-14T05:42:14.961Z,100525.22
2023-04-14T05:45:17.689Z,100528.06
2023-04-14T05:48:22.924Z,100514.72
2023-04-14T05:51:27.791Z,100520.09
2023-04-14T05:54:30.579Z,100521.84
2023-04-14T05:57:34.985Z,100522.94
2023-04-14T06:00:37.651Z,100520.84
2023-04-14T06:03:40.919Z,100523.91
2023-04-14T06:06:43.896Z,100521.44
2023-04-14T06:09:47.050Z,100519.03
2023-04-14T06:12:51.300Z,100521.09
2023-04-14T06:15:55.946Z,100529.31
2023-04-14T06:18:58.903Z,100530.19
2023-04-14T06:22:01.943Z,100529.53
2023-04-14T06:25:05.126Z,100531.19
2023-04-14T06:28:09.779Z,100537.16
2023-04-14T06:31:14.159Z,100538.09
2023-04-14T06:34:16.944Z,100541.97
2023-04-14T06:37:19.768Z,100543.94
2023-04-14T06:40:22.525Z,100549.75
2023-04-14T06:43:28.380Z,100546.09
2023-04-14T06:46:31.120Z,100541.97
2023-04-14T06:49:34.037Z,100542.78
2023-04-14T06:52:36.773Z,100544.75
2023-04-14T06:55:41.805Z,100548.31
2023-04-14T06:58:46.065Z,100544.59
2023-04-14T07:01:48.832Z,100540.94
2023-04-14T07:04:52.110Z,100540.84
2023-04-14T07:07:55.043Z,100546.69
2023-04-14T07:11:01.261Z,100549.78
2023-04-14T07:14:05.500Z,100551.44
2023-04-14T07:17:08.269Z,100555.72
2023-04-14T07:20:11.982Z,100542.28
2023-04-14T07:23:14.925Z,100547.59
2023-04-14T07:26:17.619Z,100544.34
2023-04-14T07:29:21.865Z,100540.94
2023-04-14T07:32:24.567Z,100551.75
2023-04-14T07:35:27.426Z,100560.09
2023-04-14T07:38:30.180Z,100555.75
2023-04-14T07:41:32.903Z,100558.38
2023-04-14T07:44:37.097Z,100560.41
2023-04-14T07:47:39.791Z,100569.13
2023-04-14T07:50:42.904Z,100561.94
2023-04-14T07:53:45.771Z,100571.63
2023-04-14T07:56:48.686Z,100571.50
2023-04-14T07:59:52.963Z,100576.81
2023-04-14T08:02:55.861Z,100578.28
2023-04-14T08:05:58.862Z,100586.38
2023-04-14T08:09:02.070Z,100580.53
2023-04-14T08:12:05.192Z,100576.72
2023-04-14T08:15:10.608Z,100570.75
2023-04-14T08:18:13.322Z,100567.06
2023-04-14T08:21:16.736Z,100568.91
2023-04-14T08:24:19.423Z,100569.28
2023-04-14T08:27:22.210Z,100570.81
2023-04-14T08:30:26.356Z,100576.03
2023-04-14T08:33:29.040Z,100578.94
2023-04-14T08:36:31.916Z,100576.16
2023-04-14T08:39:34.771Z,100575.06
2023-04-14T08:42:37.782Z,100565.59
2023-04-14T08:45:42.998Z,100568.16
2023-04-14T08:48:48.534Z,100563.78
2023-04-14T08:51:54.204Z,100563.78
2023-04-14T08:54:58.392Z,100553.22
2023-04-14T08:58:02.415Z,100546.41
2023-04-14T09:01:07.535Z,100552.97
2023-04-14T09:04:10.703Z,100552.28
2023-04-14T09:07:14.917Z,100543.63
2023-04-14T09:10:18.706Z,100551.69
2023-04-14T09:13:22.982Z,100551.94
2023-04-14T09:16:28.195Z,100552.19
2023-04-14T09:19:31.261Z,100556.19
2023-04-14T09:22:34.766Z,100548.19
2023-04-14T09:25:39.881Z,100551.53
2023-04-14T09:28:42.721Z,100539.31
2023-04-14T09:31:48.563Z,100552.28
2023-04-14T09:34:55.611Z,100549.53
2023-04-14T09:38:00.409Z,100544.97
2023-04-14T09:41:03.995Z,100549.75
2023-04-14T09:44:08.597Z,100546.41
2023-04-14T09:47:16.318Z,100541.13
2023-04-14T09:50:19.133Z,100529.25
2023-04-14T09:53:27.153Z,100540.66
2023-04-14T09:56:29.928Z,100535.16
2023-04-14T09:59:34.343Z,100529.16
2023-04-14T10:02:51.508Z,100530.44
2023-04-14T10:05:54.303Z,100525.44
2023-04-14T10:08:57.618Z,100534.31
2023-04-14T10:12:12.314Z,100534.34
2023-04-14T10:15:17.190Z,100529.84
2023-04-14T10:18:22.078Z,100539.28
2023-04-14T10:21:25.483Z,100536.16
2023-04-14T10:24:28.206Z,100528.69
2023-04-14T10:27:32.511Z,100536.44
2023-04-14T10:30:35.473Z,100526.97
2023-04-14T10:33:39.748Z,100532.81
2023-04-14T10:36:43.997Z,100530.66
2023-04-14T10:39:56.330Z,100525.53
2023-04-14T10:42:59.100Z,100524.13
2023-04-14T10:46:02.200Z,100520.09
2023-04-14T10:49:06.428Z,100510.84
2023-04-14T10:52:33.279Z,100505.94
2023-04-14T10:55:52.176Z,100506.91
2023-04-14T10:58:56.365Z,100497.59
2023-04-14T11:01:59.270Z,100494.16
2023-04-14T11:05:05.679Z,100497.28
2023-04-14T11:08:14.645Z,100486.09
2023-04-14T11:11:18.183Z,100492.00
2023-04-14T11:14:27.559Z,100481.41
2023-04-14T11:17:33.076Z,100493.03
2023-04-14T11:20:41.501Z,100489.41
2023-04-14T11:23:44.610Z,100492.13
2023-04-14T11:26:47.400Z,100487.34
2023-04-14T11:29:51.210Z,100480.44
2023-04-14T11:32:57.347Z,100487.25
2023-04-14T11:36:03.069Z,100482.28
2023-04-14T11:39:06.504Z,100485.44
2023-04-14T11:42:09.256Z,100491.88
2023-04-14T11:45:15.460Z,100490.22
2023-04-14T11:48:19.381Z,100499.22
2023-04-14T11:51:30.255Z,100500.91
2023-04-14T11:54:36.649Z,100497.22
2023-04-14T11:57:39.491Z,100495.31
2023-04-14T12:00:42.849Z,100492.94
2023-04-14T12:03:46.803Z,100488.50
2023-04-14T12:06:52.292Z,100496.16
2023-04-14T12:09:55.999Z,100492.66
2023-04-14T12:13:02.562Z,100490.41
2023-04-14T12:16:05.852Z,100475.31
2023-04-14T12:19:08.562Z,100485.63
2023-04-14T12:22:12.995Z,100476.50
2023-04-14T12:25:15.918Z,100473.72
2023-04-14T12:28:19.428Z,100470.78
2023-04-14T12:31:28.713Z,100468.00
2023-04-14T12:34:32.338Z,100472.91
2023-04-14T12:37:37.176Z,100466.09
2023-04-14T12:40:42.772Z,100463.56
2023-04-14T12:43:46.158Z,100460.25
2023-04-14T12:46:50.352Z,100458.13
2023-04-14T12:49:53.797Z,100458.78
2023-04-14T12:52:59.933Z,100458.72
2023-04-14T12:56:07.901Z,100451.41
2023-04-14T12:59:10.562Z,100453.63
2023-04-14T13:02:14.236Z,100447.09
2023-04-14T13:05:17.592Z,100438.16
2023-04-14T13:08:21.738Z,100442.38
2023-04-14T13:11:25.304Z,100439.81
2023-04-14T13:14:28.125Z,100430.22
2023-04-14T13:17:31.281Z,100432.75
2023-04-14T13:20:34.265Z,100432.84
2023-04-14T13:23:38.593Z,100441.53
2023-04-14T13:26:41.565Z,100422.81
2023-04-14T13:29:44.608Z,100422.53
2023-04-14T13:32:48.019Z,100418.06
2023-04-14T13:35:51.440Z,100419.38
2023-04-14T13:38:55.682Z,100411.59
2023-04-14T13:41:58.643Z,100409.84
2023-04-14T13:45:11.041Z,100412.41
2023-04-14T13:48:29.967Z,100411.41
2023-04-14T13:51:33.460Z,100399.25
2023-04-14T13:54:37.845Z,100407.47
2023-04-14T13:57:40.800Z,100405.47
2023-04-14T14:00:43.549Z,100407.59
2023-04-14T14:03:46.777Z,100400.38
2023-04-14T14:06:58.620Z,100411.28
2023-04-14T14:13:26.651Z,100409.56
2023-04-14T14:16:36.507Z,100405.91
2023-04-14T14:19:40.392Z,100408.13
2023-04-14T14:22:43.810Z,100411.69
2023-04-14T14:25:48.933Z,100394.38
2023-04-14T14:28:52.165Z,100401.69
2023-04-14T14:32:03.370Z,100395.66
2023-04-14T14:35:08.208Z,100392.38
2023-04-14T14:38:11.576Z,100388.09
2023-04-14T14:41:20.649Z,100392.69
2023-04-14T14:44:23.601Z,100396.78
2023-04-14T14:47:26.434Z,100388.56
2023-04-14T14:50:29.281Z,100385.53
2023-04-14T14:53:32.404Z,100371.63
2023-04-14T14:56:36.598Z,100367.78
2023-04-14T14:59:39.500Z,100363.97
2023-04-14T15:02:42.633Z,100371.66
2023-04-14T15:05:46.525Z,100369.97
2023-04-14T15:08:50.313Z,100375.03
2023-04-14T15:11:54.446Z,100376.88
2023-04-14T15:14:57.464Z,100370.31
2023-04-14T15:18:00.249Z,100367.19
2023-04-14T15:21:03.281Z,100361.44
2023-04-14T15:24:06.075Z,100359.47
2023-04-14T15:27:10.152Z,100356.13
2023-04-14T15:30:13.392Z,100355.06
2023-04-14T15:33:16.457Z,100362.72
2023-04-14T15:36:19.431Z,100365.78
2023-04-14T15:39:22.191Z,100373.09
2023-04-14T15:42:26.628Z,100375.22
2023-04-14T15:45:29.349Z,100379.84
2023-04-14T15:48:32.133Z,100378.72
2023-04-14T15:51:34.858Z,100378.69
2023-04-14T15:54:37.929Z,100373.13
2023-04-14T15:57:41.978Z,100381.06
2023-04-14T16:00:44.830Z,100376.50
2023-04-14T16:03:48.786Z,100374.34
2023-04-14T16:06:52.713Z,100371.81
2023-04-14T16:09:55.651Z,100373.38
2023-04-14T16:12:59.815Z,100378.47
2023-04-14T16:16:02.595Z,100385.53
2023-04-14T16:19:05.368Z,100388.00
2023-04-14T16:22:08.333Z,100378.69
2023-04-14T16:25:11.492Z,100388.22
2023-04-14T16:28:16.268Z,100384.59
2023-04-14T16:31:19.308Z,100383.50
2023-04-14T16:34:22.290Z,100379.53
2023-04-14T16:37:26.636Z,100378.69
2023-04-14T16:40:29.402Z,100380.19
2023-04-14T16:43:33.545Z,100379.50
2023-04-14T16:46:36.422Z,100375.84
2023-04-14T16:49:39.343Z,100380.00
2023-04-14T16:52:42.231Z,100376.69
2023-04-14T16:55:45.357Z,100375.81
2023-04-14T16:58:49.713Z,100385.09
2023-04-14T17:01:52.880Z,100379.88
2023-04-14T17:04:57.021Z,100383.06
2023-04-14T17:07:59.953Z,100376.31
2023-04-14T17:11:03.578Z,100368.81
2023-04-14T17:14:08.153Z,100371.41
2023-04-14T17:17:10.979Z,100365.16
2023-04-14T17:20:15.370Z,100377.72
2023-04-14T17:23:20.461Z,100371.47
2023-04-14T17:26:24.843Z,100369.25
2023-04-14T17:29:29.553Z,100370.38
2023-04-14T17:32:33.595Z,100380.44
2023-04-14T17:35:36.689Z,100387.19
2023-04-14T17:38:40.593Z,100389.34
2023-04-14T17:41:44.782Z,100389.91
2023-04-14T17:44:49.137Z,100376.94
2023-04-14T17:47:53.776Z,100389.78
2023-04-14T17:50:56.685Z,100389.22
2023-04-14T17:54:00.236Z,100372.56
2023-04-14T17:57:04.364Z,100372.63
2023-04-14T18:00:10.832Z,100380.50
2023-04-14T18:03:14.575Z,100377.97
2023-04-14T18:06:17.922Z,100370.50
2023-04-14T18:09:20.770Z,100369.81
2023-04-14T18:12:23.892Z,100379.63
2023-04-14T18:15:28.030Z,100384.28
2023-04-14T18:18:31.441Z,100385.09
2023-04-14T18:21:34.312Z,100396.88
2023-04-14T18:30:55.612Z,100394.97
2023-04-14T18:34:03.797Z,100389.53
2023-04-14T18:37:06.552Z,100385.16
2023-04-14T18:40:10.561Z,100398.47
2023-04-14T18:43:13.399Z,100395.41
2023-04-14T18:46:17.555Z,100403.03
2023-04-14T18:49:20.342Z,100397.88
2023-04-14T18:52:23.150Z,100398.13
2023-04-14T18:55:25.966Z,100404.94
2023-04-14T18:58:31.667Z,100399.88
2023-04-14T19:01:36.173Z,100388.59
2023-04-14T19:04:39.199Z,100390.25
2023-04-14T19:07:42.171Z,100395.22
2023-04-14T19:10:47.022Z,100394.06
2023-04-14T19:13:50.062Z,100382.53
2023-04-14T19:16:54.309Z,100378.50
2023-04-14T19:19:57.524Z,100370.28
2023-04-14T19:23:00.348Z,100359.91
2023-04-14T19:26:03.758Z,100348.72
2023-04-14T19:29:06.686Z,100347.75
2023-04-14T19:32:10.771Z,100341.19
2023-04-14T19:35:13.644Z,100334.22
2023-04-14T19:38:16.444Z,100334.66
2023-04-14T19:41:19.373Z,100337.94
2023-04-14T19:44:22.227Z,100332.16
2023-04-14T19:47:30.247Z,100334.47
2023-04-14T19:50:33.136Z,100337.69
2023-04-14T19:53:36.401Z,100332.44
2023-04-14T19:56:39.103Z,100338.66
2023-04-14T19:59:42.608Z,100336.56
2023-04-14T20:02:46.776Z,100331.09
2023-04-14T20:05:54.275Z,100325.16
2023-04-14T20:08:57.051Z,100320.78
2023-04-14T20:12:02.442Z,100327.25
2023-04-14T20:15:06.276Z,100312.97
2023-04-14T20:18:10.362Z,100314.88
2023-04-14T20:21:13.746Z,100319.72
2023-04-14T20:24:16.491Z,100323.31
2023-04-14T20:27:19.798Z,100322.56
2023-04-14T20:30:22.734Z,100329.69
2023-04-14T20:33:26.786Z,100336.28
2023-04-14T20:36:31.736Z,100330.25
2023-04-14T20:39:34.492Z,100313.44
2023-04-14T20:42:37.356Z,100303.53
2023-04-14T20:45:40.258Z,100298.94
2023-04-14T20:48:44.670Z,100302.91
2023-04-14T20:51:48.354Z,100303.28
2023-04-14T20:54:52.951Z,100313.72
2023-04-14T20:57:58.383Z,100319.50
2023-04-14T21:01:02.802Z,100331.34
2023-04-14T21:04:07.049Z,100329.09
2023-04-14T21:07:10.057Z,100337.94
2023-04-14T21:10:15.178Z,100315.06
2023-04-14T21:15:28.383Z,100303.03
2023-04-14T21:16:41.839Z,100311.91
2023-04-14T21:19:46.052Z,100320.44
2023-04-14T21:22:48.901Z,100313.66
2023-04-14T21:25:52.434Z,100298.31
2023-04-14T21:28:55.367Z,100291.44
2023-04-14T21:31:58.381Z,100297.16
2023-04-14T21:35:02.648Z,100287.88
2023-04-14T21:38:05.744Z,100286.72
2023-04-14T21:41:09.384Z,100288.13
2023-04-14T21:44:13.256Z,100289.53
2023-04-14T21:47:16.471Z,100285.97
2023-04-14T21:50:20.755Z,100277.28
2023-04-14T21:53:23.675Z,100282.75
2023-04-14T21:56:26.412Z,100277.00
2023-04-14T21:59:29.172Z,100269.91
2023-04-14T22:02:32.746Z,100256.00
2023-04-14T22:05:36.964Z,100264.16
2023-04-14T22:08:40.745Z,100265.25
2023-04-14T22:11:43.476Z,100263.34
2023-04-14T22:14:46.755Z,100260.59
2023-04-14T22:17:50.485Z,100259.69
2023-04-14T22:20:54.777Z,100253.78
2023-04-14T22:23:57.886Z,100251.59
2023-04-14T22:27:00.651Z,100244.75
2023-04-14T22:30:05.066Z,100248.84
2023-04-14T22:33:08.560Z,100243.66
2023-04-14T22:36:12.827Z,100243.09
2023-04-14T22:39:15.696Z,100243.66
2023-04-14T22:42:18.365Z,100242.34
2023-04-14T22:45:21.370Z,100247.47
2023-04-14T22:48:24.133Z,100241.22
2023-04-14T22:51:28.306Z,100233.81
2023-04-14T22:54:31.201Z,100237.94
2023-04-14T22:57:34.160Z,100241.44
2023-04-14T23:00:37.492Z,100238.72
2023-04-14T23:03:40.285Z,100230.03
2023-04-14T23:06:44.785Z,100235.19
2023-04-14T23:09:47.622Z,100229.19
2023-04-14T23:12:50.297Z,100232.16
2023-04-14T23:15:53.253Z,100231.19
2023-04-14T23:18:56.110Z,100234.66
2023-04-14T23:22:00.308Z,100226.00
2023-04-14T23:25:03.161Z,100234.09
2023-04-14T23:28:05.999Z,100207.19
2023-04-14T23:31:08.905Z,100216.22
2023-04-14T23:34:11.605Z,100218.25
2023-04-14T23:37:15.911Z,100214.09
2023-04-14T23:40:18.788Z,100220.25
2023-04-14T23:43:21.617Z,100216.72
2023-04-14T23:46:24.692Z,100214.25
2023-04-14T23:49:35.422Z,100223.53
2023-04-14T23:52:40.078Z,100215.09
2023-04-14T23:55:43.949Z,100216.19
2023-04-14T23:58:47.036Z,100220.25
